Luis Santiago

Jefe de ojeadores - Villarreal
4 Jun 2028
Domingo
Continuar

Personalidad

Adaptabilidad (6) Ambición (14) Controversia (2) Lealtad (11) Presión (5) Profesionalismo (17) Deportividad (4) Temperamento (20)

Perfil

Estilo de dirección Democrático
Licencia Nacional B
Determinación 14
Gestión de personas 11
Motivación 6
Disciplina 14
Satisfacción laboral
100%
Fatiga
0%
Cargo Jefe de ojeadores
Salario 19.9K p/s
Contrato 14.03.2029

Rendimiento

Comportamiento Bueno
Efectividad del entrenamiento
60%
Desarrollo de jugadores
30%
Prevención de lesiones
35%
Implementación táctica
70%

Eventos recientes

Evaluó a un jugador ahora
Evaluó a un jugador ahora
Presentó un informe a la directiva ahora

Actualmente siguiendo

148
Jugador Club Estado Habilidad Confianza Observado Última observación Último voto
Aaron Ramsdale Southampton Activo 156 / 157 40% 1 03.06.2028 -
Robin Roefs Sunderland Activo 151 / 150 40% 1 03.06.2028 -
Đorđe Petrović Bournemouth Activo 155 / 151 40% 1 03.06.2028 -
Luiz Júnior Betis Activo 153 / 151 40% 2 02.06.2028 -
Elia Caprile Cagliari Activo 154 / 153 40% 1 02.06.2028 -
Hugo Mallo Almería Perdido 126 / 129 93% 1 01.06.2028 -
Keny Arroyo Cruzeiro Activo 130 / 126 40% 5 30.01.2028 -
Kauã Moraes Cruzeiro Activo 130 / 136 40% 4 30.01.2028 -
Micah Mbick Charlton Athletic Activo 114 / 121 40% 1 29.01.2028 -
Juan Sebastian Palacios Iquique Activo 92 / 100 40% 1 29.01.2028 -
Dilan Godoy Vélez Activo 113 / 119 40% 6 28.01.2028 -
Pedro Zenit Activo 137 / 138 40% 1 28.01.2028 -
Jorge Salinas Racing Santander Activo 132 / 133 40% 1 28.01.2028 -
Mateo Lizondo Colón Activo 94 / 102 40% 2 26.01.2028 -
Mateus Mané Wolverhampton Activo 140 / 148 40% 1 26.01.2028 -
Juan David Obando Dinamo Barnaul Activo 88 / 92 40% 1 23.01.2028 -
Lewis Miley Leicester City Activo 149 / 151 40% 1 23.01.2028 -
Aarón Ochoa Málaga Activo 122 / 132 40% 1 23.01.2028 -
Ryan Oné Sheffield United Activo 119 / 127 40% 2 20.01.2028 -
Luka Andrade Montevideo City Torque Activo 104 / 105 40% 1 20.01.2028 -
Diogo Costa Porto Activo 169 / 167 40% 2 19.01.2028 -
Yehvann Diouf OGC Nice Activo 147 / 147 40% 1 19.01.2028 -
Diego Conde Sevilla Activo 150 / 148 40% 1 19.01.2028 -
Lander Astiazarán Real Sociedad Activo 113 / 119 40% 2 18.01.2028 -
Ruben Ramos LA Galaxy Activo 99 / 102 40% 1 18.01.2028 -
Nestory Irankunda Watford Activo 127 / 132 40% 3 14.01.2028 -
Santos Torrealba Caracas Activo 97 / 108 40% 1 14.01.2028 -
Mateo Peralta Danubio Activo 113 / 120 40% 3 13.01.2028 -
Axel Montaña Danubio Activo 101 / 103 40% 1 13.01.2028 -
Dilan Villarreal Junior Activo 90 / 100 40% 1 12.01.2028 -
Franco Minerva Platense Activo 118 / 120 40% 1 11.01.2028 -
Flávio Gonçalves Sporting CP Activo 129 / 130 40% 1 11.01.2028 -
Josías Palais River Plate Activo 112 / 120 40% 2 10.01.2028 -
André Miranda Porto Activo 113 / 118 40% 1 10.01.2028 -
Sidiki Chérif Coventry City Activo 134 / 137 40% 1 09.01.2028 -
Thiago Szkaluba Central Espanol Activo 95 / 102 40% 1 09.01.2028 -
Henrique Carmo CSKA Moscow Activo 131 / 130 40% 1 07.01.2028 -
Ronan Kpakio Cardiff City Activo 123 / 125 40% 1 03.01.2028 -
Luke Baartman Ghazl El Mahalla Activo 112 / 113 40% 1 03.01.2028 -
Christos Mandas Lazio Activo 148 / 147 40% 1 01.01.2028 -
Dean Henderson Crystal Palace Activo 157 / 157 40% 1 01.01.2028 -
Gonzalo Almenara Ceuta Activo 108 / 108 30% 1 / 1m 15.09.2027 -
Ian Wisdom Sporting Cristal Activo 97 / 104 40% 2 31.08.2027 -
Chris Brady Chicago Fire Activo 142 / 144 40% 1 31.08.2027 -
Bart Verbruggen Brighton Activo 159 / 158 40% 1 31.08.2027 -
Felipe Serrés Wanderers Activo 99 / 105 40% 1 31.08.2027 -
Ishmael Addo Heart of Lions Activo 90 / 97 40% 1 31.08.2027 -
Francisco Marchant Colo-Colo Activo 93 / 103 40% 1 29.08.2027 -
Richardson Rivas Deportes Tolima Activo 110 / 113 40% 1 29.08.2027 -
Diego Medina Cortulua Activo 110 / 112 40% 2 28.08.2027 -
Facundo Balatti Penarol Activo 103 / 108 40% 1 28.08.2027 -
Manuel Kissanga Inter Allies Activo 90 / 100 40% 1 26.08.2027 -
Rafael Vargas Cortulua Activo 90 / 100 40% 1 26.08.2027 -
Musa Malik Ikorodu City Activo 90 / 97 40% 1 25.08.2027 -
Mateo Martínez Wanderers Activo 91 / 103 40% 1 25.08.2027 -
Lukáš Horníček Tottenham Activo 153 / 153 40% 1 23.08.2027 -
Honest Ahanor Fiorentina Activo 134 / 143 40% 3 19.08.2027 -
Alessio Insignito Spezia Activo 102 / 106 40% 1 19.08.2027 -
Afriyie Sulemana Hasaacas Activo 99 / 99 40% 1 19.08.2027 -
Valentino Acuña Newell's Old Boys Activo 111 / 119 40% 1 18.08.2027 -
Teo Rodríguez Pagano San Lorenzo Activo 117 / 127 40% 1 18.08.2027 -
Gady Beyuku Modena Activo 117 / 128 40% 1 17.08.2027 -
Jesús Rodríguez Como Activo 150 / 149 40% 1 17.08.2027 -
Mads Hermansen West Ham United Activo 143 / 143 40% 1 16.08.2027 -
Mile Svilar AS Roma Activo 166 / 162 40% 1 16.08.2027 -
Ravshan Xayrullayev Bukhara Activo 97 / 98 40% 1 14.08.2027 -
Rodrigo Dudok Rentistas Activo 94 / 99 40% 1 14.08.2027 -
Edwin Hormaza Depor Activo 84 / 96 40% 1 12.08.2027 -
Luciano Strey Patronato Activo 86 / 93 40% 1 12.08.2027 -
Francisco Cuzzani Ferro Carril Oeste Activo 100 / 112 40% 1 11.08.2027 -
Jader Martínez Fortaleza CEIF Activo 103 / 113 40% 1 11.08.2027 -
Morgan Dala New York Red Bulls Activo 121 / 127 40% 3 10.08.2027 -
Mattia Puzone Siracusa Activo 100 / 110 40% 2 10.08.2027 -
Tomás Viera Nacional Activo 95 / 97 40% 1 09.08.2027 -
Dylan Salvo Defensores Unidos Activo 97 / 102 40% 1 06.08.2027 -
Mattia Rutigliano Pro Vercelli Activo 103 / 111 40% 1 06.08.2027 -
Luciano Romano Godoy Cruz Activo 96 / 98 40% 1 06.08.2027 -
Noah Streit CF Montreal Activo 115 / 121 40% 5 03.08.2027 -
Tommaso Ravaglioli AlbinoLeffe Activo 93 / 102 40% 1 03.08.2027 -
Pablo Suárez Rentistas Activo 100 / 100 40% 1 01.08.2027 -
Thiago Balbuena Lanús Activo 100 / 105 40% 1 01.08.2027 -
Rayan Bournemouth Activo 140 / 145 40% 4 29.07.2027 -
Joel Canchimbo Barranquilla Activo 111 / 110 40% 2 29.07.2027 -
Amín Molinas Libertad Activo 105 / 109 40% 1 29.07.2027 -
Lorenzo Orzán Colón Activo 92 / 101 40% 1 28.07.2027 -
Dilan Acosta Defensores Activo 90 / 104 40% 1 28.07.2027 -
Mateo Ostachi Alvarado Activo 89 / 90 40% 1 26.07.2027 -
Yaghoub Barage Persepolis Activo 102 / 116 40% 1 26.07.2027 -
Denys Smetana Inhulets Activo 95 / 104 40% 2 25.07.2027 -
Elie N'Gatta Sochaux Activo 100 / 101 40% 1 25.07.2027 -
Bautista Rámirez Vélez Activo 101 / 103 40% 1 24.07.2027 -
Filipe Gabriel General Caballero Activo 96 / 101 40% 1 24.07.2027 -
Thiago Fusco Colón Activo 97 / 95 40% 1 20.07.2027 -
Francisco Triver River Plate Activo 91 / 93 40% 1 20.07.2027 -
Mateo Aguiar Defensa y Justicia Activo 108 / 118 40% 2 19.07.2027 -
Lucas Camilo Puebla Activo 90 / 89 40% 1 19.07.2027 -
Souza Tottenham Activo 129 / 134 40% 1 19.07.2027 -
Ollie Scarles West Ham United Activo 134 / 133 40% 3 15.07.2027 -
Joseph Opoku Swansea City Activo 119 / 128 40% 2 15.07.2027 -
Mads Abrahamsen Saturn Activo 87 / 94 40% 1 13.07.2027 -
Mohamed Touré Viktoria Plzen Activo 107 / 112 40% 4 12.07.2027 -
Mohamadou Kanté West Ham United Activo 119 / 127 40% 2 11.07.2027 -
Kendry Páez Chelsea Activo 130 / 134 40% 2 11.07.2027 -
Matías Calegari Olympiacos Activo 98 / 105 40% 1 10.07.2027 -
Lautaro Ávila Racing Activo 90 / 106 40% 1 09.07.2027 -
Estanislao López Colón Activo 87 / 100 40% 1 09.07.2027 -
Tiago Esidín Ferro Carril Oeste Activo 101 / 103 40% 1 08.07.2027 -
Dylan Gorosito Boca Juniors Activo 110 / 120 40% 3 07.07.2027 -
Mirko Juárez Quilmes Activo 96 / 108 40% 1 07.07.2027 -
Wilfred Correa Caracas Activo 97 / 99 40% 1 04.07.2027 -
Dani Díaz Real Sociedad Activo 117 / 122 40% 3 03.07.2027 -
Lucas Duré Montevideo City Torque Activo 101 / 103 40% 1 03.07.2027 -
Ulises Giménez River Plate Activo 106 / 120 40% 1 01.07.2027 -
Enzo Galli Patronato Activo 93 / 97 40% 1 01.07.2027 -
Harley Mills Peterborough United Activo 96 / 100 40% 1 01.07.2027 -
Axel Tape Bayer Leverkusen Activo 125 / 129 40% 1 29.06.2027 -
Borna Knezović Casarano Activo 103 / 112 40% 1 29.06.2027 -
Jano Aguiar Colón Activo 96 / 94 40% 1 28.06.2027 -
Iván Barbona Colón Activo 97 / 100 40% 1 28.06.2027 -
Rodrigo Villalba Libertad Activo 100 / 103 40% 1 27.06.2027 -
Olti Hyseni Brondby Activo 111 / 127 40% 1 26.06.2027 -
Mohamed Bolivar Barranquilla Activo 85 / 97 40% 1 26.06.2027 -
Nazareno Petrecca Nueva Chicago Activo 94 / 109 40% 1 26.06.2027 -
Matheus Gonçalves Al-Ahli Activo 126 / 134 40% 3 23.06.2027 -
Braian Mansilla Talleres Activo 87 / 89 40% 1 14.06.2027 -
Juan Oviedo Gimnasia y Tiro Activo 90 / 93 40% 1 09.06.2027 -
Jaydee Canvot Crystal Palace Activo 135 / 138 40% 2 08.06.2027 -
Martim Cunha Porto Activo 101 / 106 40% 3 04.06.2027 -
Ahmad Lamido Wikki Tourists Activo 90 / 87 40% 1 04.06.2027 -
Esteban de Lima Tacuarembo Activo 94 / 96 40% 1 03.06.2027 -
Mateo Durand General Diaz Activo 91 / 95 40% 1 03.06.2027 -
Ignacio Perruzzi San Lorenzo Activo 124 / 133 40% 3 31.01.2027 -
Bobby Clark Derby County Activo 118 / 130 40% 1 30.01.2027 -
Breno Bidon Corinthians Activo 127 / 132 40% 2 27.01.2027 -
Juan Pablo Arango Talleres Activo 99 / 103 40% 1 27.01.2027 -
Dehmaine Tabibou FC Nantes Activo 128 / 131 40% 1 27.01.2027 -
Emirhan Başyiğit Sivasspor Activo 112 / 114 40% 1 27.01.2027 -
Luís Guilherme Sporting CP Activo 126 / 135 40% 1 18.01.2027 -
Edmund Baidoo Borussia Dortmund Activo 121 / 131 40% 1 16.01.2027 -
Santiago Daniele Chacarita Juniors Activo 101 / 109 40% 1 12.01.2027 -
Tristan Degreef Anderlecht Activo 126 / 130 40% 1 09.01.2027 -
Juan Pablo De la Reta Maipú Activo 109 / 117 40% 2 08.01.2027 -
Ivan Shilenok Zenit Activo 90 / 93 40% 1 08.01.2027 -
Jon Garro Real Sociedad Activo 88 / 91 67% 1 02.01.2027 Rechazar
Gastón Martínez Belgrano Activo 92 / 95 40% 1 21.08.2026 -
Martín García Aldosivi Activo 94 / 88 40% 1 19.08.2026 -
Vitor Roque Palmeiras Activo 137 / 146 40% 1 19.08.2026 -
Agustín Alvez San Lorenzo Activo 98 / 93 40% 1 17.08.2026 -